sensor_id;sensor_type;location;lat;lon;timestamp;pressure;altitude;pressure_sealevel;temperature;humidity
40592;BME280;26301;42.832;23.918;2023-05-21T00:00:08;93159.03;;;9.91;100.00
40592;BME280;26301;42.832;23.918;2023-05-21T00:02:36;93163.94;;;9.93;100.00
40592;BME280;26301;42.832;23.918;2023-05-21T00:05:02;93166.97;;;9.90;100.00
40592;BME280;26301;42.832;23.918;2023-05-21T00:07:29;93161.19;;;9.82;100.00
40592;BME280;26301;42.832;23.918;2023-05-21T00:09:56;93149.31;;;9.81;100.00
40592;BME280;26301;42.832;23.918;2023-05-21T00:12:22;93133.88;;;9.70;100.00
40592;BME280;26301;42.832;23.918;2023-05-21T00:14:48;93145.84;;;9.76;100.00
40592;BME280;26301;42.832;23.918;2023-05-21T00:17:14;93137.91;;;9.66;100.00
40592;BME280;26301;42.832;23.918;2023-05-21T00:19:40;93145.06;;;9.75;100.00
40592;BME280;26301;42.832;23.918;2023-05-21T00:22:06;93128.94;;;9.56;100.00
40592;BME280;26301;42.832;23.918;2023-05-21T00:24:32;93139.94;;;9.64;100.00
40592;BME280;26301;42.832;23.918;2023-05-21T00:26:58;93141.50;;;9.65;100.00
40592;BME280;26301;42.832;23.918;2023-05-21T00:29:24;93128.09;;;9.51;100.00
40592;BME280;26301;42.832;23.918;2023-05-21T00:31:52;93138.88;;;9.48;100.00
40592;BME280;26301;42.832;23.918;2023-05-21T00:34:18;93139.84;;;9.47;100.00
40592;BME280;26301;42.832;23.918;2023-05-21T00:36:45;93120.28;;;9.34;100.00
40592;BME280;26301;42.832;23.918;2023-05-21T00:39:12;93137.53;;;9.45;100.00
40592;BME280;26301;42.832;23.918;2023-05-21T00:41:39;93127.31;;;9.38;100.00
40592;BME280;26301;42.832;23.918;2023-05-21T00:44:08;93139.06;;;9.58;100.00
40592;BME280;26301;42.832;23.918;2023-05-21T00:46:34;93134.56;;;9.53;100.00
40592;BME280;26301;42.832;23.918;2023-05-21T00:48:59;93125.41;;;9.46;100.00
40592;BME280;26301;42.832;23.918;2023-05-21T00:51:25;93113.75;;;9.43;100.00
40592;BME280;26301;42.832;23.918;2023-05-21T00:53:55;93127.22;;;9.45;100.00
40592;BME280;26301;42.832;23.918;2023-05-21T00:56:24;93127.28;;;9.50;100.00
40592;BME280;26301;42.832;23.918;2023-05-21T00:58:53;93127.41;;;9.44;100.00
40592;BME280;26301;42.832;23.918;2023-05-21T01:01:21;93125.31;;;9.41;100.00
40592;BME280;26301;42.832;23.918;2023-05-21T01:03:51;93108.75;;;9.25;100.00
40592;BME280;26301;42.832;23.918;2023-05-21T01:06:18;93129.81;;;9.33;100.00
40592;BME280;26301;42.832;23.918;2023-05-21T01:08:47;93111.53;;;9.23;100.00
40592;BME280;26301;42.832;23.918;2023-05-21T01:11:15;93129.03;;;9.33;100.00
40592;BME280;26301;42.832;23.918;2023-05-21T01:13:42;93108.75;;;9.25;100.00
40592;BME280;26301;42.832;23.918;2023-05-21T01:16:10;93117.06;;;9.27;100.00
40592;BME280;26301;42.832;23.918;2023-05-21T01:18:38;93125.88;;;9.31;100.00
40592;BME280;26301;42.832;23.918;2023-05-21T01:21:05;93121.75;;;9.30;100.00
40592;BME280;26301;42.832;23.918;2023-05-21T01:23:32;93112.38;;;9.12;100.00
40592;BME280;26301;42.832;23.918;2023-05-21T01:25:59;93111.03;;;9.09;100.00
40592;BME280;26301;42.832;23.918;2023-05-21T01:28:25;93115.28;;;9.15;100.00
40592;BME280;26301;42.832;23.918;2023-05-21T01:30:51;93114.50;;;9.15;100.00
40592;BME280;26301;42.832;23.918;2023-05-21T01:33:24;93133.75;;;9.24;100.00
40592;BME280;26301;42.832;23.918;2023-05-21T01:36:17;93132.63;;;9.20;100.00
40592;BME280;26301;42.832;23.918;2023-05-21T01:38:56;93133.28;;;9.27;100.00
40592;BME280;26301;42.832;23.918;2023-05-21T01:41:26;93110.44;;;9.19;100.00
40592;BME280;26301;42.832;23.918;2023-05-21T01:43:55;93102.25;;;9.22;100.00
40592;BME280;26301;42.832;23.918;2023-05-21T01:46:24;93127.78;;;9.35;100.00
40592;BME280;26301;42.832;23.918;2023-05-21T01:48:52;93106.75;;;9.27;100.00
40592;BME280;26301;42.832;23.918;2023-05-21T01:51:19;93123.19;;;9.37;100.00
40592;BME280;26301;42.832;23.918;2023-05-21T01:53:45;93124.53;;;9.40;100.00
40592;BME280;26301;42.832;23.918;2023-05-21T01:56:11;93120.03;;;9.35;100.00
40592;BME280;26301;42.832;23.918;2023-05-21T01:58:37;93095.75;;;9.20;100.00
40592;BME280;26301;42.832;23.918;2023-05-21T02:01:03;93116.69;;;9.35;100.00
40592;BME280;26301;42.832;23.918;2023-05-21T02:03:30;93103.78;;;9.35;100.00
40592;BME280;26301;42.832;23.918;2023-05-21T02:05:56;93096.06;;;9.23;100.00
40592;BME280;26301;42.832;23.918;2023-05-21T02:08:22;93123.75;;;9.39;100.00
40592;BME280;26301;42.832;23.918;2023-05-21T02:10:49;93113.28;;;9.46;100.00
40592;BME280;26301;42.832;23.918;2023-05-21T02:13:16;93116.66;;;9.47;100.00
40592;BME280;26301;42.832;23.918;2023-05-21T02:15:45;93113.09;;;9.48;100.00
40592;BME280;26301;42.832;23.918;2023-05-21T02:18:11;93111.28;;;9.48;100.00
40592;BME280;26301;42.832;23.918;2023-05-21T02:20:41;93097.25;;;9.44;100.00
40592;BME280;26301;42.832;23.918;2023-05-21T02:23:08;93099.63;;;9.46;100.00
40592;BME280;26301;42.832;23.918;2023-05-21T02:25:34;93107.94;;;9.48;100.00
40592;BME280;26301;42.832;23.918;2023-05-21T02:28:00;93105.81;;;9.45;100.00
40592;BME280;26301;42.832;23.918;2023-05-21T02:30:26;93100.44;;;9.34;100.00
40592;BME280;26301;42.832;23.918;2023-05-21T02:32:54;93064.97;;;9.13;100.00
40592;BME280;26301;42.832;23.918;2023-05-21T02:35:23;93095.16;;;9.29;100.00
40592;BME280;26301;42.832;23.918;2023-05-21T02:37:49;93083.22;;;9.11;100.00
40592;BME280;26301;42.832;23.918;2023-05-21T02:40:15;93079.53;;;9.07;100.00
40592;BME280;26301;42.832;23.918;2023-05-21T02:42:42;93098.56;;;9.18;100.00
40592;BME280;26301;42.832;23.918;2023-05-21T02:45:09;93089.72;;;9.14;100.00
40592;BME280;26301;42.832;23.918;2023-05-21T02:47:36;93083.66;;;9.08;100.00
40592;BME280;26301;42.832;23.918;2023-05-21T02:50:06;93075.16;;;9.08;100.00
40592;BME280;26301;42.832;23.918;2023-05-21T02:52:32;93091.50;;;9.13;100.00
40592;BME280;26301;42.832;23.918;2023-05-21T02:54:58;93072.38;;;9.09;100.00
40592;BME280;26301;42.832;23.918;2023-05-21T02:57:24;93086.00;;;9.22;100.00
40592;BME280;26301;42.832;23.918;2023-05-21T02:59:50;93074.69;;;9.23;100.00
40592;BME280;26301;42.832;23.918;2023-05-21T03:02:16;93066.31;;;9.15;100.00
40592;BME280;26301;42.832;23.918;2023-05-21T03:04:43;93073.00;;;9.16;100.00
40592;BME280;26301;42.832;23.918;2023-05-21T03:07:15;93072.81;;;9.18;100.00
40592;BME280;26301;42.832;23.918;2023-05-21T03:09:44;93093.47;;;9.35;100.00
40592;BME280;26301;42.832;23.918;2023-05-21T03:12:11;93079.25;;;9.32;100.00
40592;BME280;26301;42.832;23.918;2023-05-21T03:14:37;93086.00;;;9.33;100.00
40592;BME280;26301;42.832;23.918;2023-05-21T03:17:03;93073.63;;;9.35;100.00
40592;BME280;26301;42.832;23.918;2023-05-21T03:19:33;93092.00;;;9.51;100.00
40592;BME280;26301;42.832;23.918;2023-05-21T03:22:02;93096.56;;;9.60;100.00
40592;BME280;26301;42.832;23.918;2023-05-21T03:24:29;93102.25;;;9.62;100.00
40592;BME280;26301;42.832;23.918;2023-05-21T03:26:55;93089.34;;;9.62;100.00
40592;BME280;26301;42.832;23.918;2023-05-21T03:29:21;93099.56;;;9.69;100.00
40592;BME280;26301;42.832;23.918;2023-05-21T03:31:48;93081.88;;;9.61;100.00
40592;BME280;26301;42.832;23.918;2023-05-21T03:34:20;93095.41;;;9.68;100.00
40592;BME280;26301;42.832;23.918;2023-05-21T03:36:46;93100.78;;;9.67;100.00
40592;BME280;26301;42.832;23.918;2023-05-21T03:39:14;93073.25;;;9.55;100.00
40592;BME280;26301;42.832;23.918;2023-05-21T03:41:39;93073.88;;;9.62;100.00
40592;BME280;26301;42.832;23.918;2023-05-21T03:44:05;93087.28;;;9.76;100.00
40592;BME280;26301;42.832;23.918;2023-05-21T03:46:31;93089.19;;;9.81;100.00
40592;BME280;26301;42.832;23.918;2023-05-21T03:48:57;93085.69;;;9.87;100.00
40592;BME280;26301;42.832;23.918;2023-05-21T03:51:24;93069.25;;;9.76;100.00
40592;BME280;26301;42.832;23.918;2023-05-21T03:53:50;93089.47;;;9.96;100.00
40592;BME280;26301;42.832;23.918;2023-05-21T03:56:16;93069.41;;;9.87;100.00
40592;BME280;26301;42.832;23.918;2023-05-21T03:58:42;93101.19;;;10.04;100.00
40592;BME280;26301;42.832;23.918;2023-05-21T04:01:08;93094.56;;;10.08;100.00
40592;BME280;26301;42.832;23.918;2023-05-21T04:03:35;93074.75;;;9.97;100.00
40592;BME280;26301;42.832;23.918;2023-05-21T04:06:02;93075.84;;;10.01;100.00
40592;BME280;26301;42.832;23.918;2023-05-21T04:08:28;93073.13;;;10.07;100.00
40592;BME280;26301;42.832;23.918;2023-05-21T04:10:55;93073.97;;;10.13;100.00
40592;BME280;26301;42.832;23.918;2023-05-21T04:13:22;93079.00;;;10.20;100.00
40592;BME280;26301;42.832;23.918;2023-05-21T04:15:48;93080.22;;;10.29;100.00
40592;BME280;26301;42.832;23.918;2023-05-21T04:18:13;93100.09;;;10.45;100.00
40592;BME280;26301;42.832;23.918;2023-05-21T04:20:41;93097.03;;;10.48;100.00
40592;BME280;26301;42.832;23.918;2023-05-21T04:23:08;93093.81;;;10.58;100.00
40592;BME280;26301;42.832;23.918;2023-05-21T04:25:34;93104.84;;;10.70;100.00
40592;BME280;26301;42.832;23.918;2023-05-21T04:28:00;93102.66;;;10.79;100.00
40592;BME280;26301;42.832;23.918;2023-05-21T04:30:26;93095.94;;;10.78;100.00
40592;BME280;26301;42.832;23.918;2023-05-21T04:32:52;93096.63;;;10.90;100.00
40592;BME280;26301;42.832;23.918;2023-05-21T04:35:19;93104.09;;;11.09;100.00
40592;BME280;26301;42.832;23.918;2023-05-21T04:37:46;93106.81;;;11.19;100.00
40592;BME280;26301;42.832;23.918;2023-05-21T04:40:12;93092.47;;;11.28;100.00
40592;BME280;26301;42.832;23.918;2023-05-21T04:42:43;93073.44;;;11.17;100.00
40592;BME280;26301;42.832;23.918;2023-05-21T04:45:12;93073.44;;;11.17;100.00
40592;BME280;26301;42.832;23.918;2023-05-21T04:47:39;93061.31;;;11.18;100.00
40592;BME280;26301;42.832;23.918;2023-05-21T04:50:05;93086.38;;;11.39;100.00
40592;BME280;26301;42.832;23.918;2023-05-21T04:52:31;93070.09;;;11.39;100.00
40592;BME280;26301;42.832;23.918;2023-05-21T04:54:59;93090.72;;;11.56;100.00
40592;BME280;26301;42.832;23.918;2023-05-21T04:57:26;93097.31;;;11.68;100.00
40592;BME280;26301;42.832;23.918;2023-05-21T04:59:53;93100.75;;;11.74;100.00
40592;BME280;26301;42.832;23.918;2023-05-21T05:02:19;93098.94;;;11.75;100.00
40592;BME280;26301;42.832;23.918;2023-05-21T05:04:45;93082.81;;;11.67;100.00
40592;BME280;26301;42.832;23.918;2023-05-21T05:07:11;93079.22;;;11.68;100.00
40592;BME280;26301;42.832;23.918;2023-05-21T05:09:38;93091.22;;;11.80;100.00
40592;BME280;26301;42.832;23.918;2023-05-21T05:12:04;93091.53;;;11.83;100.00
40592;BME280;26301;42.832;23.918;2023-05-21T05:14:30;93093.41;;;11.88;100.00
40592;BME280;26301;42.832;23.918;2023-05-21T05:16:56;93085.56;;;11.83;100.00
40592;BME280;26301;42.832;23.918;2023-05-21T05:19:25;93089.25;;;11.87;100.00
40592;BME280;26301;42.832;23.918;2023-05-21T05:21:51;93090.56;;;11.89;100.00
40592;BME280;26301;42.832;23.918;2023-05-21T05:24:17;93101.84;;;12.05;100.00
40592;BME280;26301;42.832;23.918;2023-05-21T05:26:43;93088.06;;;12.00;100.00
40592;BME280;26301;42.832;23.918;2023-05-21T05:29:09;93089.16;;;12.04;100.00
40592;BME280;26301;42.832;23.918;2023-05-21T05:31:41;93096.78;;;12.16;100.00
40592;BME280;26301;42.832;23.918;2023-05-21T05:34:07;93105.97;;;12.28;100.00
40592;BME280;26301;42.832;23.918;2023-05-21T05:36:33;93098.13;;;12.23;100.00
40592;BME280;26301;42.832;23.918;2023-05-21T05:39:01;93110.38;;;12.33;100.00
40592;BME280;26301;42.832;23.918;2023-05-21T05:41:27;93103.16;;;12.35;100.00
40592;BME280;26301;42.832;23.918;2023-05-21T05:43:53;93080.28;;;12.22;100.00
40592;BME280;26301;42.832;23.918;2023-05-21T05:46:20;93114.84;;;12.38;100.00
40592;BME280;26301;42.832;23.918;2023-05-21T05:48:46;93110.97;;;12.40;100.00
40592;BME280;26301;42.832;23.918;2023-05-21T05:51:12;93088.38;;;12.30;100.00
40592;BME280;26301;42.832;23.918;2023-05-21T05:53:40;93101.44;;;12.46;100.00
40592;BME280;26301;42.832;23.918;2023-05-21T05:56:06;93104.34;;;12.54;100.00
40592;BME280;26301;42.832;23.918;2023-05-21T05:58:32;93088.78;;;12.49;100.00
40592;BME280;26301;42.832;23.918;2023-05-21T06:00:58;93106.25;;;12.64;100.00
40592;BME280;26301;42.832;23.918;2023-05-21T06:03:24;93106.81;;;12.71;100.00
40592;BME280;26301;42.832;23.918;2023-05-21T06:05:51;93094.13;;;12.70;100.00
40592;BME280;26301;42.832;23.918;2023-05-21T06:08:17;93094.69;;;12.77;100.00
40592;BME280;26301;42.832;23.918;2023-05-21T06:10:43;93096.03;;;12.85;100.00
40592;BME280;26301;42.832;23.918;2023-05-21T06:13:09;93092.94;;;12.93;100.00
40592;BME280;26301;42.832;23.918;2023-05-21T06:15:35;93105.72;;;13.04;100.00
40592;BME280;26301;42.832;23.918;2023-05-21T06:18:03;93091.72;;;13.05;100.00
40592;BME280;26301;42.832;23.918;2023-05-21T06:20:30;93091.25;;;13.14;100.00
40592;BME280;26301;42.832;23.918;2023-05-21T06:22:56;93091.84;;;13.21;100.00
40592;BME280;26301;42.832;23.918;2023-05-21T06:25:22;93070.53;;;13.19;100.00
40592;BME280;26301;42.832;23.918;2023-05-21T06:27:50;93085.69;;;13.37;100.00
40592;BME280;26301;42.832;23.918;2023-05-21T06:30:16;93075.78;;;13.29;100.00
40592;BME280;26301;42.832;23.918;2023-05-21T06:32:42;93076.91;;;13.43;100.00
40592;BME280;26301;42.832;23.918;2023-05-21T06:35:08;93074.34;;;13.48;100.00
40592;BME280;26301;42.832;23.918;2023-05-21T06:37:35;93096.97;;;13.63;100.00
40592;BME280;26301;42.832;23.918;2023-05-21T06:40:01;93071.75;;;13.59;100.00
40592;BME280;26301;42.832;23.918;2023-05-21T06:42:27;93095.19;;;13.79;100.00
40592;BME280;26301;42.832;23.918;2023-05-21T06:44:54;93090.78;;;13.80;100.00
40592;BME280;26301;42.832;23.918;2023-05-21T06:47:19;93078.81;;;13.73;100.00
40592;BME280;26301;42.832;23.918;2023-05-21T06:49:45;93093.91;;;13.82;100.00
40592;BME280;26301;42.832;23.918;2023-05-21T06:52:12;93091.56;;;13.85;100.00
40592;BME280;26301;42.832;23.918;2023-05-21T06:54:38;93089.50;;;13.82;100.00
40592;BME280;26301;42.832;23.918;2023-05-21T06:57:04;93101.47;;;13.99;98.86
40592;BME280;26301;42.832;23.918;2023-05-21T06:59:30;93103.31;;;14.08;95.38
40592;BME280;26301;42.832;23.918;2023-05-21T07:01:57;93110.59;;;14.11;94.32
40592;BME280;26301;42.832;23.918;2023-05-21T07:04:22;93105.38;;;14.01;94.81
40592;BME280;26301;42.832;23.918;2023-05-21T07:06:49;93091.06;;;13.88;96.44
40592;BME280;26301;42.832;23.918;2023-05-21T07:09:17;93098.63;;;14.00;96.28
40592;BME280;26301;42.832;23.918;2023-05-21T07:11:43;93098.34;;;14.02;96.56
40592;BME280;26301;42.832;23.918;2023-05-21T07:14:09;93098.09;;;13.98;96.88
40592;BME280;26301;42.832;23.918;2023-05-21T07:16:35;93090.56;;;14.02;97.22
40592;BME280;26301;42.832;23.918;2023-05-21T07:19:01;93093.94;;;14.07;97.62
40592;BME280;26301;42.832;23.918;2023-05-21T07:21:27;93100.47;;;14.25;96.88
40592;BME280;26301;42.832;23.918;2023-05-21T07:23:53;93104.13;;;14.29;94.53
40592;BME280;26301;42.832;23.918;2023-05-21T07:26:19;93088.00;;;14.22;93.63
40592;BME280;26301;42.832;23.918;2023-05-21T07:28:46;93092.97;;;14.24;93.57
40592;BME280;26301;42.832;23.918;2023-05-21T07:31:11;93097.88;;;14.25;94.30
40592;BME280;26301;42.832;23.918;2023-05-21T07:33:37;93091.16;;;14.29;95.25
40592;BME280;26301;42.832;23.918;2023-05-21T07:36:04;93110.13;;;14.45;96.53
40592;BME280;26301;42.832;23.918;2023-05-21T07:38:31;93093.75;;;14.45;94.12
40592;BME280;26301;42.832;23.918;2023-05-21T07:40:57;93110.41;;;14.64;92.43
40592;BME280;26301;42.832;23.918;2023-05-21T07:43:23;93107.00;;;14.74;91.85
40592;BME280;26301;42.832;23.918;2023-05-21T07:45:49;93100.28;;;14.78;91.69
40592;BME280;26301;42.832;23.918;2023-05-21T07:48:16;93094.03;;;14.84;89.29
40592;BME280;26301;42.832;23.918;2023-05-21T07:50:43;93093.22;;;14.94;87.11
40592;BME280;26301;42.832;23.918;2023-05-21T07:53:09;93076.84;;;14.93;85.54
40592;BME280;26301;42.832;23.918;2023-05-21T07:55:35;93098.41;;;15.09;86.92
40592;BME280;26301;42.832;23.918;2023-05-21T07:58:03;93104.63;;;15.13;86.13
40592;BME280;26301;42.832;23.918;2023-05-21T08:00:41;93082.53;;;15.11;84.99
40592;BME280;26301;42.832;23.918;2023-05-21T08:03:08;93092.41;;;15.14;86.64
40592;BME280;26301;42.832;23.918;2023-05-21T08:05:36;93089.25;;;15.27;88.08
40592;BME280;26301;42.832;23.918;2023-05-21T08:08:02;93093.13;;;15.40;88.52
40592;BME280;26301;42.832;23.918;2023-05-21T08:10:29;93083.50;;;15.35;85.68
40592;BME280;26301;42.832;23.918;2023-05-21T08:12:55;93060.34;;;15.39;87.09
40592;BME280;26301;42.832;23.918;2023-05-21T08:15:22;93083.69;;;15.54;88.72
40592;BME280;26301;42.832;23.918;2023-05-21T08:17:48;93078.75;;;15.68;88.78
40592;BME280;26301;42.832;23.918;2023-05-21T08:20:14;93088.78;;;15.90;89.52
40592;BME280;26301;42.832;23.918;2023-05-21T08:22:40;93086.16;;;15.95;87.36
40592;BME280;26301;42.832;23.918;2023-05-21T08:25:08;93075.19;;;15.98;86.24
40592;BME280;26301;42.832;23.918;2023-05-21T08:27:34;93077.72;;;16.13;86.02
40592;BME280;26301;42.832;23.918;2023-05-21T08:30:00;93065.34;;;16.29;82.13
40592;BME280;26301;42.832;23.918;2023-05-21T08:32:27;93075.88;;;16.48;83.09
40592;BME280;26301;42.832;23.918;2023-05-21T08:34:55;93053.56;;;16.37;80.70
40592;BME280;26301;42.832;23.918;2023-05-21T08:37:21;93056.34;;;16.45;80.82
40592;BME280;26301;42.832;23.918;2023-05-21T08:39:50;93074.97;;;16.68;81.12
40592;BME280;26301;42.832;23.918;2023-05-21T08:42:38;93065.75;;;16.81;76.92
40592;BME280;26301;42.832;23.918;2023-05-21T08:45:10;93062.88;;;16.82;78.35
40592;BME280;26301;42.832;23.918;2023-05-21T08:47:36;93054.00;;;16.83;78.65
40592;BME280;26301;42.832;23.918;2023-05-21T08:50:12;93052.94;;;16.84;76.06
40592;BME280;26301;42.832;23.918;2023-05-21T08:52:39;93055.16;;;16.96;79.36
40592;BME280;26301;42.832;23.918;2023-05-21T08:55:06;93067.06;;;17.07;79.33
40592;BME280;26301;42.832;23.918;2023-05-21T08:57:33;93052.47;;;17.06;79.48
40592;BME280;26301;42.832;23.918;2023-05-21T09:00:00;93063.47;;;17.27;76.41
40592;BME280;26301;42.832;23.918;2023-05-21T09:02:30;93059.03;;;17.28;78.88
40592;BME280;26301;42.832;23.918;2023-05-21T09:04:58;93068.19;;;17.49;76.37
40592;BME280;26301;42.832;23.918;2023-05-21T09:07:29;93070.44;;;17.56;72.88
40592;BME280;26301;42.832;23.918;2023-05-21T09:09:57;93048.53;;;17.57;77.25
40592;BME280;26301;42.832;23.918;2023-05-21T09:12:27;93062.78;;;17.65;73.61
40592;BME280;26301;42.832;23.918;2023-05-21T09:14:54;93065.53;;;17.73;73.81
40592;BME280;26301;42.832;23.918;2023-05-21T09:17:22;93064.22;;;17.76;71.43
40592;BME280;26301;42.832;23.918;2023-05-21T09:20:11;93062.03;;;17.83;72.56
40592;BME280;26301;42.832;23.918;2023-05-21T09:25:11;93058.25;;;17.94;70.05
40592;BME280;26301;42.832;23.918;2023-05-21T09:27:37;93059.78;;;17.95;70.32
40592;BME280;26301;42.832;23.918;2023-05-21T09:30:14;93057.31;;;18.04;72.03
40592;BME280;26301;42.832;23.918;2023-05-21T09:32:41;93060.22;;;18.21;74.97
40592;BME280;26301;42.832;23.918;2023-05-21T09:37:42;93050.81;;;18.39;70.92
40592;BME280;26301;42.832;23.918;2023-05-21T09:40:16;93054.72;;;18.56;69.18
40592;BME280;26301;42.832;23.918;2023-05-21T09:45:24;93055.97;;;18.77;67.86
40592;BME280;26301;42.832;23.918;2023-05-21T09:47:52;93056.66;;;18.83;66.90
40592;BME280;26301;42.832;23.918;2023-05-21T09:50:21;93057.66;;;18.87;67.19
40592;BME280;26301;42.832;23.918;2023-05-21T09:52:48;93052.31;;;18.92;69.77
40592;BME280;26301;42.832;23.918;2023-05-21T09:55:18;93052.75;;;19.27;66.54
40592;BME280;26301;42.832;23.918;2023-05-21T09:57:47;93045.75;;;19.22;65.48
40592;BME280;26301;42.832;23.918;2023-05-21T10:00:21;93056.25;;;19.50;70.41
40592;BME280;26301;42.832;23.918;2023-05-21T10:02:52;93025.09;;;19.62;69.09
40592;BME280;26301;42.832;23.918;2023-05-21T10:05:19;93025.88;;;19.76;61.58
40592;BME280;26301;42.832;23.918;2023-05-21T10:07:50;93027.00;;;19.98;61.54
40592;BME280;26301;42.832;23.918;2023-05-21T10:10:19;93028.03;;;20.10;61.86
40592;BME280;26301;42.832;23.918;2023-05-21T10:12:51;93030.66;;;20.10;61.30
40592;BME280;26301;42.832;23.918;2023-05-21T10:15:22;93034.88;;;20.20;66.20
40592;BME280;26301;42.832;23.918;2023-05-21T10:17:49;93028.28;;;20.23;61.05
40592;BME280;26301;42.832;23.918;2023-05-21T10:20:15;93035.03;;;20.38;58.68
40592;BME280;26301;42.832;23.918;2023-05-21T10:22:43;93035.47;;;20.40;59.32
40592;BME280;26301;42.832;23.918;2023-05-21T10:25:11;93041.63;;;20.35;61.55
40592;BME280;26301;42.832;23.918;2023-05-21T10:27:38;93022.94;;;20.28;57.95
40592;BME280;26301;42.832;23.918;2023-05-21T10:30:05;93035.47;;;20.40;57.80
40592;BME280;26301;42.832;23.918;2023-05-21T10:32:32;93029.28;;;20.36;60.44
40592;BME280;26301;42.832;23.918;2023-05-21T10:34:58;93032.81;;;20.31;57.62
40592;BME280;26301;42.832;23.918;2023-05-21T10:37:26;93031.25;;;20.07;55.98
40592;BME280;26301;42.832;23.918;2023-05-21T10:39:53;93017.94;;;19.68;55.57
40592;BME280;26301;42.832;23.918;2023-05-21T10:45:16;93027.94;;;19.66;61.60
40592;BME280;26301;42.832;23.918;2023-05-21T10:50:59;93025.47;;;19.55;58.38
40592;BME280;26301;42.832;23.918;2023-05-21T10:56:41;93016.38;;;19.53;57.94
40592;BME280;26301;42.832;23.918;2023-05-21T11:01:49;93028.31;;;19.73;57.75
40592;BME280;26301;42.832;23.918;2023-05-21T11:04:28;93020.03;;;19.79;64.24
40592;BME280;26301;42.832;23.918;2023-05-21T11:06:54;93007.69;;;19.94;58.22
40592;BME280;26301;42.832;23.918;2023-05-21T11:09:22;92976.50;;;19.70;60.86
40592;BME280;26301;42.832;23.918;2023-05-21T11:11:50;93000.00;;;19.97;57.44
40592;BME280;26301;42.832;23.918;2023-05-21T11:14:34;92988.28;;;19.95;55.77
40592;BME280;26301;42.832;23.918;2023-05-21T11:17:36;93005.81;;;20.08;57.75
40592;BME280;26301;42.832;23.918;2023-05-21T11:20:12;92995.28;;;20.22;62.57
40592;BME280;26301;42.832;23.918;2023-05-21T11:22:38;93005.22;;;20.56;56.24
40592;BME280;26301;42.832;23.918;2023-05-21T11:25:08;92986.25;;;20.37;58.79
40592;BME280;26301;42.832;23.918;2023-05-21T11:27:39;92990.50;;;20.46;57.17
40592;BME280;26301;42.832;23.918;2023-05-21T11:32:36;92979.78;;;20.34;57.00
40592;BME280;26301;42.832;23.918;2023-05-21T11:35:03;92990.13;;;20.39;54.84
40592;BME280;26301;42.832;23.918;2023-05-21T11:37:30;92979.69;;;20.70;58.04
40592;BME280;26301;42.832;23.918;2023-05-21T11:40:15;92971.59;;;20.58;49.93
40592;BME280;26301;42.832;23.918;2023-05-21T11:42:41;92977.13;;;20.88;49.72
40592;BME280;26301;42.832;23.918;2023-05-21T11:45:08;92961.22;;;20.84;51.55
40592;BME280;26301;42.832;23.918;2023-05-21T11:47:35;92961.19;;;20.75;48.77
40592;BME280;26301;42.832;23.918;2023-05-21T11:50:02;92980.00;;;21.00;52.03
40592;BME280;26301;42.832;23.918;2023-05-21T11:52:29;92956.56;;;21.12;48.91
40592;BME280;26301;42.832;23.918;2023-05-21T11:54:56;92958.88;;;21.22;52.59
40592;BME280;26301;42.832;23.918;2023-05-21T11:57:27;92955.50;;;21.31;46.79
40592;BME280;26301;42.832;23.918;2023-05-21T11:59:56;92968.50;;;21.27;46.06
40592;BME280;26301;42.832;23.918;2023-05-21T12:02:31;92972.13;;;21.09;49.34
40592;BME280;26301;42.832;23.918;2023-05-21T12:04:57;92972.47;;;20.85;51.66
40592;BME280;26301;42.832;23.918;2023-05-21T12:07:28;92965.38;;;20.76;52.26
40592;BME280;26301;42.832;23.918;2023-05-21T12:09:54;92972.88;;;21.00;52.51
40592;BME280;26301;42.832;23.918;2023-05-21T12:12:22;92964.72;;;21.11;53.49
40592;BME280;26301;42.832;23.918;2023-05-21T12:14:50;92960.16;;;21.34;50.66
40592;BME280;26301;42.832;23.918;2023-05-21T12:17:20;92960.94;;;21.34;51.18
40592;BME280;26301;42.832;23.918;2023-05-21T12:19:48;92964.75;;;21.19;48.11
40592;BME280;26301;42.832;23.918;2023-05-21T12:22:16;92953.16;;;21.20;49.77
40592;BME280;26301;42.832;23.918;2023-05-21T12:24:42;92953.16;;;21.20;49.07
40592;BME280;26301;42.832;23.918;2023-05-21T12:27:12;92954.25;;;21.19;46.95
40592;BME280;26301;42.832;23.918;2023-05-21T12:29:46;92967.94;;;21.48;47.49
40592;BME280;26301;42.832;23.918;2023-05-21T12:32:13;92950.47;;;21.52;46.50
40592;BME280;26301;42.832;23.918;2023-05-21T12:34:46;92955.19;;;21.32;48.93
40592;BME280;26301;42.832;23.918;2023-05-21T12:37:20;92948.69;;;21.30;46.35
40592;BME280;26301;42.832;23.918;2023-05-21T12:39:48;92951.53;;;21.51;47.25
40592;BME280;26301;42.832;23.918;2023-05-21T12:42:15;92958.53;;;21.64;48.86
40592;BME280;26301;42.832;23.918;2023-05-21T12:44:48;92943.22;;;21.75;48.33
40592;BME280;26301;42.832;23.918;2023-05-21T12:47:13;92951.56;;;21.59;46.20
40592;BME280;26301;42.832;23.918;2023-05-21T12:49:44;92935.59;;;21.38;47.72
40592;BME280;26301;42.832;23.918;2023-05-21T12:52:17;92950.03;;;21.67;46.13
40592;BME280;26301;42.832;23.918;2023-05-21T12:54:45;92930.53;;;21.68;43.42
40592;BME280;26301;42.832;23.918;2023-05-21T12:57:15;92942.47;;;22.00;47.46
40592;BME280;26301;42.832;23.918;2023-05-21T13:02:27;92938.25;;;22.34;43.77
40592;BME280;26301;42.832;23.918;2023-05-21T13:05:02;92928.53;;;22.26;43.55
40592;BME280;26301;42.832;23.918;2023-05-21T13:07:30;92938.28;;;22.17;44.04
40592;BME280;26301;42.832;23.918;2023-05-21T13:09:58;92928.84;;;22.07;45.40
40592;BME280;26301;42.832;23.918;2023-05-21T13:12:31;92926.38;;;21.67;44.24
40592;BME280;26301;42.832;23.918;2023-05-21T13:15:00;92926.84;;;21.86;43.19